PXO weather

Porto Santo Airport
Vila Baleira, Autonomous Region of Madeira, Portugal

Public forecast

Using degrees Celsius for public forecast. Weather courtesy of forecast.io.

Current aviation weather report (METAR) for Porto Santo Airport

Retrieved 2019/12/12 08:30 UTC (0 seconds ago):

LPPS 120830Z 06013KT 030V090 9999 FEW015 BKN030 16/09 Q1033

Aviation forecast (TAF) for Porto Santo Airport

Retrieved 2019/12/12 06:18 UTC (2 hours ago):

TAF LPPS 120500Z 1206/1312 04012KT 9999 SCT015 TEMPO 1206/1312 FEW015 BKN030 PROB30 TEMPO 1206/1215 05015G25KT BECMG 1300/1303 36008KT BECMG 1309/1311 03010KT